createdAt,value
2019-02-27T00:01:02.313Z,95161.77
2019-02-27T00:03:31.407Z,95165.55
2019-02-27T00:06:00.297Z,95162.18
2019-02-27T00:08:29.388Z,95161.17
2019-02-27T00:10:58.984Z,95169.34
2019-02-27T00:13:28.460Z,95164.95
2019-02-27T00:15:57.766Z,95164.86
2019-02-27T00:18:26.675Z,95166.33
2019-02-27T00:20:55.715Z,95166.47
2019-02-27T00:23:25.188Z,95168.34
2019-02-27T00:25:54.486Z,95168.83
2019-02-27T00:28:23.977Z,95166.83
2019-02-27T00:30:54.046Z,95155.59
2019-02-27T00:33:26.099Z,95163.16
2019-02-27T00:35:52.559Z,95159.36
2019-02-27T00:38:22.770Z,95150.80
2019-02-27T00:40:50.648Z,95148.22
2019-02-27T00:43:19.872Z,95146.61
2019-02-27T00:45:48.930Z,95146.70
2019-02-27T00:48:18.542Z,95145.00
2019-02-27T00:50:47.563Z,95146.78
2019-02-27T00:53:16.996Z,95155.02
2019-02-27T00:55:45.921Z,95149.28
2019-02-27T00:58:15.012Z,95150.54
2019-02-27T01:00:44.029Z,95147.27
2019-02-27T01:03:13.283Z,95145.33
2019-02-27T01:05:42.200Z,95139.39
2019-02-27T01:08:11.203Z,95142.82
2019-02-27T01:10:42.782Z,95136.22
2019-02-27T01:13:10.831Z,95143.22
2019-02-27T01:15:41.763Z,95137.47
2019-02-27T01:18:09.635Z,95133.94
2019-02-27T01:20:39.135Z,95131.53
2019-02-27T01:23:10.905Z,95128.84
2019-02-27T01:25:37.696Z,95126.73
2019-02-27T01:28:10.812Z,95128.23
2019-02-27T01:30:35.932Z,95135.08
2019-02-27T01:33:05.351Z,95134.40
2019-02-27T01:35:35.133Z,95135.41
2019-02-27T01:38:05.319Z,95128.48
2019-02-27T01:40:33.735Z,95135.42
2019-02-27T01:43:05.562Z,95134.80
2019-02-27T01:45:32.554Z,95123.27
2019-02-27T01:48:02.125Z,95120.94
2019-02-27T01:50:33.406Z,95122.72
2019-02-27T01:53:07.048Z,95122.17
2019-02-27T01:55:31.883Z,95128.70
2019-02-27T01:58:01.014Z,95132.69
2019-02-27T02:00:30.300Z,95131.70
2019-02-27T02:02:59.479Z,95131.61
2019-02-27T02:05:28.683Z,95136.10
2019-02-27T02:07:57.819Z,95132.35
2019-02-27T02:10:28.290Z,95133.25
2019-02-27T02:13:14.822Z,95132.28
2019-02-27T02:16:18.791Z,95136.48
2019-02-27T02:20:06.564Z,95139.47
2019-02-27T02:23:15.113Z,95133.41
2019-02-27T02:26:32.132Z,95131.04
2019-02-27T02:30:02.373Z,95127.85
2019-02-27T02:32:42.349Z,95127.84
2019-02-27T02:35:52.385Z,95133.09
2019-02-27T02:39:44.817Z,95128.75
2019-02-27T02:43:30.211Z,95130.64
2019-02-27T02:46:10.704Z,95137.22
2019-02-27T02:48:49.086Z,95129.06
2019-02-27T02:51:36.268Z,95140.09
2019-02-27T02:55:20.972Z,95149.24
2019-02-27T02:58:07.975Z,95150.13
2019-02-27T03:00:40.424Z,95153.20
2019-02-27T03:03:26.270Z,95152.59
2019-02-27T03:08:19.944Z,95151.02
2019-02-27T03:11:07.201Z,95151.34
2019-02-27T03:14:02.060Z,95146.34
2019-02-27T03:16:45.150Z,95150.73
2019-02-27T03:19:30.062Z,95160.87
2019-02-27T03:22:11.184Z,95167.13
2019-02-27T03:25:05.433Z,95161.97
2019-02-27T03:27:57.688Z,95167.17
2019-02-27T03:32:41.278Z,95168.46
2019-02-27T03:35:29.509Z,95164.09
2019-02-27T03:39:18.528Z,95167.69
2019-02-27T03:42:00.142Z,95166.88
2019-02-27T03:45:41.205Z,95159.05
2019-02-27T03:48:20.505Z,95152.87
2019-02-27T03:50:57.089Z,95155.66
2019-02-27T03:54:09.724Z,95158.16
2019-02-27T03:57:00.938Z,95160.22
2019-02-27T04:00:49.794Z,95162.00
2019-02-27T04:04:32.533Z,95167.28
2019-02-27T04:08:10.988Z,95165.11
2019-02-27T04:10:39.899Z,95172.69
2019-02-27T04:13:09.104Z,95167.52
2019-02-27T04:15:38.562Z,95171.51
2019-02-27T04:18:06.100Z,95176.16
2019-02-27T04:20:35.287Z,95180.84
2019-02-27T04:23:04.852Z,95178.26
2019-02-27T04:25:33.868Z,95184.52
2019-02-27T04:28:02.856Z,95192.36
2019-02-27T04:30:31.824Z,95194.66
2019-02-27T04:33:00.986Z,95191.95
2019-02-27T04:35:31.105Z,95190.17
2019-02-27T04:38:00.452Z,95192.52
2019-02-27T04:40:29.947Z,95193.13
2019-02-27T04:42:59.280Z,95188.80
2019-02-27T04:45:28.842Z,95191.94
2019-02-27T04:47:58.492Z,95193.59
2019-02-27T04:50:27.223Z,95195.81
2019-02-27T04:52:58.020Z,95201.19
2019-02-27T04:55:25.919Z,95208.33
2019-02-27T04:57:54.793Z,95207.98
2019-02-27T05:00:26.068Z,95208.92
2019-02-27T05:02:54.062Z,95212.53
2019-02-27T05:05:22.611Z,95211.92
2019-02-27T05:07:54.058Z,95212.07
2019-02-27T05:10:20.904Z,95218.02
2019-02-27T05:12:50.756Z,95223.41
2019-02-27T05:15:20.236Z,95225.67
2019-02-27T05:17:49.525Z,95220.97
2019-02-27T05:20:19.316Z,95227.84
2019-02-27T05:22:48.476Z,95230.48
2019-02-27T05:25:17.744Z,95225.23
2019-02-27T05:27:47.143Z,95226.92
2019-02-27T05:30:16.383Z,95226.06
2019-02-27T05:32:45.844Z,95236.32
2019-02-27T05:35:14.819Z,95230.26
2019-02-27T05:37:44.138Z,95230.79
2019-02-27T05:40:13.547Z,95234.22
2019-02-27T05:42:43.315Z,95232.81
2019-02-27T05:45:13.089Z,95237.00
2019-02-27T05:47:45.812Z,95236.45
2019-02-27T05:50:12.468Z,95234.41
2019-02-27T05:52:41.832Z,95240.86
2019-02-27T05:55:11.083Z,95244.22
2019-02-27T05:57:41.639Z,95247.19
2019-02-27T06:00:13.912Z,95250.27
2019-02-27T06:02:44.970Z,95255.63
2019-02-27T06:05:12.164Z,95261.80
2019-02-27T06:07:41.368Z,95268.89
2019-02-27T06:10:12.314Z,95266.98
2019-02-27T06:12:41.488Z,95269.02
2019-02-27T06:15:13.133Z,95278.38
2019-02-27T06:17:43.558Z,95281.05
2019-02-27T06:20:12.060Z,95285.81
2019-02-27T06:22:41.250Z,95283.84
2019-02-27T06:25:12.724Z,95279.75
2019-02-27T06:27:41.827Z,95292.67
2019-02-27T06:30:13.888Z,95292.42
2019-02-27T06:32:43.063Z,95298.59
2019-02-27T06:35:12.381Z,95306.34
2019-02-27T06:37:41.526Z,95304.98
2019-02-27T06:40:11.879Z,95305.05
2019-02-27T06:42:41.421Z,95307.56
2019-02-27T06:45:12.654Z,95313.70
2019-02-27T06:47:40.296Z,95308.60
2019-02-27T06:50:11.148Z,95313.48
2019-02-27T06:52:42.485Z,95318.18
2019-02-27T06:55:09.960Z,95318.79
2019-02-27T06:57:41.303Z,95316.27
2019-02-27T07:00:12.305Z,95322.45
2019-02-27T07:02:41.159Z,95318.73
2019-02-27T07:05:13.331Z,95312.80
2019-02-27T07:07:39.939Z,95312.00
2019-02-27T07:10:09.855Z,95324.44
2019-02-27T07:12:40.011Z,95329.37
2019-02-27T07:15:12.817Z,95330.75
2019-02-27T07:17:40.653Z,95335.59
2019-02-27T07:20:10.512Z,95336.56
2019-02-27T07:22:39.558Z,95337.85
2019-02-27T07:25:09.336Z,95350.00
2019-02-27T07:27:38.670Z,95339.11
2019-02-27T07:30:10.026Z,95344.04
2019-02-27T07:32:40.019Z,95351.03
2019-02-27T07:35:09.306Z,95350.50
2019-02-27T07:37:38.336Z,95355.67
2019-02-27T07:40:09.418Z,95353.77
2019-02-27T07:42:38.572Z,95353.22
2019-02-27T07:45:10.639Z,95344.17
2019-02-27T07:47:37.307Z,95350.88
2019-02-27T07:50:08.720Z,95357.06
2019-02-27T07:52:37.211Z,95360.78
2019-02-27T07:55:18.438Z,95358.08
2019-02-27T07:57:35.899Z,95359.73
2019-02-27T08:00:05.132Z,95337.14
2019-02-27T08:02:36.177Z,95365.97
2019-02-27T08:05:03.570Z,95371.30
2019-02-27T08:07:32.701Z,95375.34
2019-02-27T08:10:04.616Z,95376.32
2019-02-27T08:12:30.931Z,95375.09
2019-02-27T08:15:00.234Z,95378.66
2019-02-27T08:17:29.482Z,95379.38
2019-02-27T08:19:58.935Z,95384.84
2019-02-27T08:22:28.108Z,95378.50
2019-02-27T08:24:57.368Z,95359.17
2019-02-27T08:27:26.774Z,95387.11
2019-02-27T08:29:55.800Z,95382.82
2019-02-27T08:32:25.281Z,95388.56
2019-02-27T08:34:54.841Z,95387.84
2019-02-27T08:37:24.210Z,95390.26
2019-02-27T08:39:54.401Z,95364.70
2019-02-27T08:42:23.523Z,95389.66
2019-02-27T08:44:52.719Z,95389.77
2019-02-27T08:47:21.584Z,95392.45
2019-02-27T08:49:50.849Z,95397.25
2019-02-27T08:52:20.443Z,95395.84
2019-02-27T08:54:49.436Z,95402.30
2019-02-27T08:57:18.750Z,95396.36
2019-02-27T08:59:48.006Z,95402.92
2019-02-27T09:02:17.187Z,95393.78
2019-02-27T09:04:46.191Z,95392.77
2019-02-27T09:07:15.995Z,95400.45
2019-02-27T09:09:44.987Z,95404.69
2019-02-27T09:12:14.056Z,95398.70
2019-02-27T09:14:43.129Z,95405.37
2019-02-27T09:17:12.424Z,95405.08
2019-02-27T09:19:45.245Z,95408.36
2019-02-27T09:22:10.399Z,95412.27
2019-02-27T09:24:39.321Z,95409.97
2019-02-27T09:27:08.381Z,95412.76
2019-02-27T09:29:37.373Z,95409.98
2019-02-27T09:32:09.218Z,95409.38
2019-02-27T09:34:36.227Z,95405.91
2019-02-27T09:37:05.211Z,95413.89
2019-02-27T09:39:35.199Z,95411.39
2019-02-27T09:42:04.239Z,95418.06
2019-02-27T09:44:36.405Z,95414.38
2019-02-27T09:47:02.923Z,95413.37
2019-02-27T09:49:31.927Z,95415.84
2019-02-27T09:52:00.881Z,95423.35
2019-02-27T09:54:30.071Z,95423.45
2019-02-27T09:57:02.117Z,95419.84
2019-02-27T09:59:28.673Z,95424.85
2019-02-27T10:01:57.863Z,95415.86
2019-02-27T10:04:28.847Z,95417.85
2019-02-27T10:06:56.435Z,95419.95
2019-02-27T10:09:25.468Z,95418.44
2019-02-27T10:11:54.698Z,95424.62
2019-02-27T10:14:24.270Z,95419.84
2019-02-27T10:16:54.280Z,95431.11
2019-02-27T10:19:26.875Z,95424.53
2019-02-27T10:21:53.612Z,95428.34
2019-02-27T10:24:22.587Z,95425.55
2019-02-27T10:26:53.510Z,95429.73
2019-02-27T10:29:21.303Z,95422.05
2019-02-27T10:31:50.228Z,95421.14
2019-02-27T10:34:19.343Z,95422.44
2019-02-27T10:36:49.019Z,95425.41
2019-02-27T10:39:18.082Z,95423.73
2019-02-27T10:41:49.712Z,95425.91
2019-02-27T10:44:16.409Z,95419.34
2019-02-27T10:46:45.589Z,95422.66
2019-02-27T10:49:14.515Z,95428.22
2019-02-27T10:51:44.440Z,95419.47
2019-02-27T10:54:13.212Z,95421.84
2019-02-27T10:56:42.202Z,95424.65
2019-02-27T10:59:11.671Z,95425.12
2019-02-27T11:01:40.836Z,95421.61
2019-02-27T11:04:10.271Z,95430.89
2019-02-27T11:06:39.338Z,95425.20
2019-02-27T11:09:19.200Z,95423.62
2019-02-27T11:11:48.778Z,95421.31
2019-02-27T11:14:18.066Z,95426.32
2019-02-27T11:16:47.300Z,95415.58
2019-02-27T11:19:16.768Z,95418.86
2019-02-27T11:21:45.764Z,95415.31
2019-02-27T11:24:17.312Z,95414.30
2019-02-27T11:26:44.327Z,95419.30
2019-02-27T11:29:13.453Z,95409.45
2019-02-27T11:31:45.441Z,95404.97
2019-02-27T11:34:12.038Z,95411.84
2019-02-27T11:36:41.240Z,95415.95
2019-02-27T11:39:10.590Z,95410.84
2019-02-27T11:41:39.714Z,95408.66
2019-02-27T11:44:08.813Z,95412.06
2019-02-27T11:46:38.207Z,95410.77
2019-02-27T11:49:07.116Z,95414.22
2019-02-27T11:51:36.041Z,95407.27
2019-02-27T11:54:08.358Z,95404.86
2019-02-27T11:56:34.432Z,95406.86
2019-02-27T11:59:04.498Z,95395.47
2019-02-27T12:01:33.755Z,95401.88
2019-02-27T12:04:03.878Z,95401.70
2019-02-27T12:06:33.477Z,95403.25
2019-02-27T12:09:03.110Z,95377.09
2019-02-27T12:11:32.371Z,95398.06
2019-02-27T12:14:01.447Z,95404.76
2019-02-27T12:16:30.604Z,95398.45
2019-02-27T12:18:59.679Z,95401.02
2019-02-27T12:21:29.045Z,95403.83
2019-02-27T12:23:58.482Z,95404.52
2019-02-27T12:26:27.552Z,95400.73
2019-02-27T12:28:56.584Z,95398.95
2019-02-27T12:31:26.552Z,95398.50
2019-02-27T12:33:55.783Z,95405.44
2019-02-27T12:36:24.854Z,95401.80
2019-02-27T12:38:54.032Z,95402.08
2019-02-27T12:41:24.200Z,95404.17
2019-02-27T12:43:53.422Z,95398.50
2019-02-27T12:46:22.564Z,95405.37
2019-02-27T12:48:51.578Z,95401.75
2019-02-27T12:51:21.116Z,95398.67
2019-02-27T12:53:54.397Z,95403.33
2019-02-27T12:56:18.844Z,95405.19
2019-02-27T12:58:48.073Z,95411.42
2019-02-27T13:01:17.089Z,95413.85
2019-02-27T13:03:46.339Z,95415.44
2019-02-27T13:06:15.437Z,95420.52
2019-02-27T13:08:45.199Z,95418.33
2019-02-27T13:11:15.201Z,95416.97
2019-02-27T13:13:44.896Z,95425.29
2019-02-27T13:16:15.008Z,95422.22
2019-02-27T13:18:43.115Z,95419.00
2019-02-27T13:21:12.107Z,95413.84
2019-02-27T13:23:42.362Z,95432.97
2019-02-27T13:26:11.217Z,95429.39
2019-02-27T13:28:40.387Z,95435.87
2019-02-27T13:31:09.567Z,95441.16
2019-02-27T13:33:38.972Z,95436.19
2019-02-27T13:36:07.749Z,95440.77
2019-02-27T13:38:37.041Z,95440.37
2019-02-27T13:41:07.700Z,95438.69
2019-02-27T13:43:35.298Z,95447.55
2019-02-27T13:46:05.140Z,95452.72
2019-02-27T13:48:34.079Z,95450.48
2019-02-27T13:51:03.175Z,95453.42
2019-02-27T13:53:32.293Z,95462.50
2019-02-27T13:56:01.293Z,95460.20
2019-02-27T13:58:35.683Z,95466.07
2019-02-27T14:01:00.711Z,95468.08
2019-02-27T14:03:29.986Z,95468.55
2019-02-27T14:05:59.072Z,95468.05
2019-02-27T14:08:31.710Z,95468.23
2019-02-27T14:10:57.719Z,95467.25
2019-02-27T14:13:27.278Z,95474.44
2019-02-27T14:15:58.059Z,95472.70
2019-02-27T14:18:26.940Z,95474.45
2019-02-27T14:20:59.007Z,95474.13
2019-02-27T14:23:26.005Z,95472.94
2019-02-27T14:25:55.094Z,95477.88
2019-02-27T14:28:24.108Z,95471.53
2019-02-27T14:30:54.164Z,95461.38
2019-02-27T14:33:23.162Z,95460.16
2019-02-27T14:35:52.538Z,95454.48
2019-02-27T14:38:22.938Z,95453.58
2019-02-27T14:40:51.242Z,95453.30
2019-02-27T14:43:20.369Z,95454.22
2019-02-27T14:45:50.824Z,95447.62
2019-02-27T14:48:21.625Z,95448.46
2019-02-27T14:50:47.809Z,95445.87
2019-02-27T14:53:19.782Z,95442.19
2019-02-27T14:55:46.935Z,95440.67
2019-02-27T14:58:16.091Z,95452.38
2019-02-27T15:00:45.245Z,95440.67
2019-02-27T15:03:14.362Z,95454.48
2019-02-27T15:05:45.274Z,95444.88
2019-02-27T15:08:13.643Z,95447.09
2019-02-27T15:10:43.813Z,95445.27
2019-02-27T15:13:13.028Z,95450.28
2019-02-27T15:15:43.745Z,95451.09
2019-02-27T15:18:11.299Z,95448.91
2019-02-27T15:20:41.204Z,95452.38
2019-02-27T15:23:09.665Z,95449.30
2019-02-27T15:25:42.199Z,95449.23
2019-02-27T15:28:07.983Z,95437.79
2019-02-27T15:30:36.959Z,95441.48
2019-02-27T15:33:06.840Z,95447.56
2019-02-27T15:35:36.523Z,95446.68
2019-02-27T15:38:05.707Z,95439.30
2019-02-27T15:40:35.407Z,95439.38
2019-02-27T15:43:10.999Z,95437.50
2019-02-27T15:45:33.623Z,95444.36
2019-02-27T15:48:06.647Z,95441.59
2019-02-27T15:50:32.129Z,95443.39
2019-02-27T15:53:01.431Z,95442.98
2019-02-27T15:55:34.229Z,95446.36
2019-02-27T15:58:00.816Z,95450.34
2019-02-27T16:00:30.228Z,95447.56
2019-02-27T16:02:59.637Z,95449.76
2019-02-27T16:05:31.383Z,95457.34
2019-02-27T16:07:58.479Z,95461.31
2019-02-27T16:10:27.695Z,95456.94
2019-02-27T16:12:59.986Z,95453.14
2019-02-27T16:15:26.206Z,95457.31
2019-02-27T16:17:55.427Z,95456.14
2019-02-27T16:20:24.737Z,95457.21
2019-02-27T16:22:53.911Z,95457.70
2019-02-27T16:25:23.045Z,95462.97
2019-02-27T16:27:52.372Z,95462.57
2019-02-27T16:30:24.177Z,95462.17
2019-02-27T16:32:53.029Z,95464.67
2019-02-27T16:35:21.987Z,95465.56
2019-02-27T16:37:56.604Z,95463.17
2019-02-27T16:40:21.500Z,95464.06
2019-02-27T16:42:50.903Z,95469.68
2019-02-27T16:45:22.028Z,95468.06
2019-02-27T16:47:54.074Z,95465.59
2019-02-27T16:50:24.743Z,95476.47
2019-02-27T16:52:52.004Z,95467.39
2019-02-27T16:55:22.077Z,95478.05
2019-02-27T16:57:56.190Z,95466.40
2019-02-27T17:00:22.491Z,95471.45
2019-02-27T17:02:52.140Z,95469.68
2019-02-27T17:05:21.861Z,95466.66
2019-02-27T17:07:51.596Z,95472.53
2019-02-27T17:10:23.135Z,95473.05
2019-02-27T17:12:52.107Z,95475.92
2019-02-27T17:15:21.377Z,95473.45
2019-02-27T17:17:53.115Z,95472.64
2019-02-27T17:20:19.917Z,95477.83
2019-02-27T17:22:49.045Z,95476.81
2019-02-27T17:25:18.194Z,95474.22
2019-02-27T17:27:50.214Z,95471.44
2019-02-27T17:30:25.199Z,95472.61
2019-02-27T17:32:55.011Z,95480.90
2019-02-27T17:35:25.266Z,95477.50
2019-02-27T17:37:54.655Z,95475.92
2019-02-27T17:40:24.096Z,95475.92
2019-02-27T17:42:54.310Z,95473.53
2019-02-27T17:45:23.114Z,95477.02
2019-02-27T17:47:52.364Z,95477.73
2019-02-27T17:50:21.548Z,95479.92
2019-02-27T17:52:50.704Z,95476.53
2019-02-27T17:55:20.786Z,95480.30
2019-02-27T17:57:50.413Z,95481.91
2019-02-27T18:00:28.415Z,95476.64
2019-02-27T18:02:55.985Z,95483.41
2019-02-27T18:05:25.455Z,95483.41
2019-02-27T18:07:54.132Z,95484.30
2019-02-27T18:10:22.964Z,95484.38
2019-02-27T18:12:52.929Z,95478.23
2019-02-27T18:15:21.757Z,95483.58
2019-02-27T18:17:51.070Z,95480.61
2019-02-27T18:20:24.158Z,95488.59
2019-02-27T18:22:50.376Z,95485.27
2019-02-27T18:25:19.270Z,95489.68
2019-02-27T18:27:48.865Z,95477.02
2019-02-27T18:30:18.770Z,95483.58
2019-02-27T18:32:48.101Z,95478.39
2019-02-27T18:35:17.232Z,95479.69
2019-02-27T18:37:46.395Z,95477.59
2019-02-27T18:40:15.705Z,95482.36
2019-02-27T18:42:44.922Z,95478.39
2019-02-27T18:45:16.214Z,95473.98
2019-02-27T18:47:45.114Z,95482.64
2019-02-27T18:50:14.402Z,95478.77
2019-02-27T18:52:44.040Z,95479.84
2019-02-27T18:55:13.262Z,95481.99
2019-02-27T18:57:45.663Z,95484.49
2019-02-27T19:00:15.211Z,95475.18
2019-02-27T19:02:44.524Z,95480.14
2019-02-27T19:05:13.622Z,95480.75
2019-02-27T19:07:42.731Z,95478.53
2019-02-27T19:10:12.223Z,95479.46
2019-02-27T19:12:42.427Z,95480.55
2019-02-27T19:15:13.410Z,95474.65
2019-02-27T19:17:42.847Z,95472.67
2019-02-27T19:20:13.191Z,95467.49
2019-02-27T19:22:43.760Z,95462.44
2019-02-27T19:25:13.863Z,95466.20
2019-02-27T19:27:41.093Z,95458.83
2019-02-27T19:30:12.319Z,95462.72
2019-02-27T19:32:41.328Z,95455.35
2019-02-27T19:35:11.515Z,95456.73
2019-02-27T19:37:40.729Z,95454.14
2019-02-27T19:40:11.367Z,95461.02
2019-02-27T19:42:48.234Z,95457.25
2019-02-27T19:45:17.372Z,95457.25
2019-02-27T19:47:49.705Z,95452.36
2019-02-27T19:50:16.586Z,95454.75
2019-02-27T19:52:46.019Z,95455.72
2019-02-27T19:55:16.179Z,95458.55
2019-02-27T19:57:45.392Z,95461.91
2019-02-27T20:00:16.861Z,95455.55
2019-02-27T20:02:45.970Z,95466.31
2019-02-27T20:05:16.416Z,95460.73
2019-02-27T20:07:44.469Z,95459.30
2019-02-27T20:10:13.835Z,95464.70
2019-02-27T20:12:43.799Z,95455.24
2019-02-27T20:15:13.519Z,95458.23
2019-02-27T20:17:43.018Z,95454.97
2019-02-27T20:20:13.230Z,95455.16
2019-02-27T20:22:42.556Z,95449.62
2019-02-27T20:25:12.938Z,95436.80
2019-02-27T20:27:42.057Z,95440.37
2019-02-27T20:30:14.327Z,95433.53
2019-02-27T20:32:43.356Z,95431.31
2019-02-27T20:35:12.858Z,95429.04
2019-02-27T20:37:42.196Z,95423.34
2019-02-27T20:40:11.494Z,95422.13
2019-02-27T20:42:40.740Z,95425.32
2019-02-27T20:45:12.382Z,95417.27
2019-02-27T20:47:41.548Z,95424.19
2019-02-27T20:50:13.829Z,95420.55
2019-02-27T20:52:43.029Z,95424.91
2019-02-27T20:55:12.163Z,95422.81
2019-02-27T20:57:42.301Z,95417.47
2019-02-27T21:00:12.550Z,95420.47
2019-02-27T21:02:41.696Z,95416.47
2019-02-27T21:05:11.527Z,95416.18
2019-02-27T21:07:40.809Z,95417.16
2019-02-27T21:10:13.474Z,95407.81
2019-02-27T21:12:53.126Z,95411.90
2019-02-27T21:15:12.700Z,95405.02
2019-02-27T21:17:42.450Z,95407.41
2019-02-27T21:20:12.171Z,95404.73
2019-02-27T21:22:41.131Z,95402.03
2019-02-27T21:25:12.044Z,95404.83
2019-02-27T21:27:40.559Z,95397.86
2019-02-27T21:30:17.758Z,95395.48
2019-02-27T21:32:42.005Z,95394.88
2019-02-27T21:35:11.178Z,95402.84
2019-02-27T21:37:44.488Z,95394.79
2019-02-27T21:40:10.518Z,95401.05
2019-02-27T21:42:39.751Z,95396.17
2019-02-27T21:45:10.835Z,95392.77
2019-02-27T21:47:39.937Z,95395.36
2019-02-27T21:50:09.955Z,95392.08
2019-02-27T21:52:39.008Z,95388.48
2019-02-27T21:55:12.570Z,95393.70
2019-02-27T21:57:40.201Z,95385.04
2019-02-27T22:00:11.361Z,95386.70
2019-02-27T22:02:38.853Z,95377.64
2019-02-27T22:05:08.588Z,95387.51
2019-02-27T22:07:38.500Z,95386.18
2019-02-27T22:10:08.704Z,95392.66
2019-02-27T22:12:37.977Z,95390.18
2019-02-27T22:15:08.488Z,95394.58
2019-02-27T22:17:37.884Z,95396.00
2019-02-27T22:20:07.512Z,95396.85
2019-02-27T22:22:41.132Z,95395.08
2019-02-27T22:25:06.038Z,95397.95
2019-02-27T22:27:35.692Z,95390.62
2019-02-27T22:30:05.399Z,95398.95
2019-02-27T22:32:35.150Z,95390.39
2019-02-27T22:35:04.538Z,95399.04
2019-02-27T22:37:35.348Z,95401.50
2019-02-27T22:40:07.340Z,95396.65
2019-02-27T22:42:34.383Z,95398.63
2019-02-27T22:45:04.321Z,95400.90
2019-02-27T22:47:32.816Z,95403.20
2019-02-27T22:50:06.017Z,95407.16
2019-02-27T22:52:31.459Z,95407.48
2019-02-27T22:55:00.515Z,95408.17
2019-02-27T22:57:29.503Z,95408.33
2019-02-27T22:59:58.408Z,95409.25
2019-02-27T23:02:27.580Z,95406.55
2019-02-27T23:04:56.756Z,95404.78
2019-02-27T23:07:26.019Z,95393.00
2019-02-27T23:09:57.495Z,95393.02
2019-02-27T23:12:25.231Z,95389.33
2019-02-27T23:14:54.471Z,95397.44
2019-02-27T23:17:23.710Z,95390.00
2019-02-27T23:19:52.918Z,95390.64
2019-02-27T23:22:22.733Z,95395.68
2019-02-27T23:24:51.833Z,95390.91
2019-02-27T23:27:20.927Z,95390.22
2019-02-27T23:29:50.444Z,95387.78
2019-02-27T23:32:19.633Z,95392.66
2019-02-27T23:34:49.299Z,95385.79
2019-02-27T23:37:18.615Z,95386.34
2019-02-27T23:39:47.888Z,95387.25
2019-02-27T23:42:17.123Z,95389.59
2019-02-27T23:44:46.188Z,95392.86
2019-02-27T23:47:15.439Z,95388.91
2019-02-27T23:49:44.840Z,95391.66
2019-02-27T23:52:14.359Z,95386.89
2019-02-27T23:54:43.739Z,95390.77
2019-02-27T23:57:13.129Z,95385.79
2019-02-27T23:59:41.926Z,95374.41
